Terminal Aerodrome Forecast
Issued by NWS Grand Forks, ND

Home | Current Version | Previous Version | Text Only | Print | Product List | Glossary On
Versions: 1 2 3 4 5 6 7 8 9 10 11 12 13 14 15 16 17 18 19 20 21 22 23
000
FTUS43 KFGF 290520
TAFFAR
TAF
KFAR 290520Z 2906/3006 32010KT P6SM OVC040
     FM290800 32010KT P6SM OVC025
     FM291000 32009KT P6SM VCSH OVC020
     FM291600 32015G24KT P6SM OVC030
     FM300100 32011KT P6SM BKN045=

USA.gov is the U.S. government's official web portal to all federal, state and local government web resources and services.